sensor_id;sensor_type;location;lat;lon;timestamp;temperature;humidity
21759;DHT22;11041;50.854;20.580;2023-07-30T00:00:23;18.50;99.90
21759;DHT22;11041;50.854;20.580;2023-07-30T00:03:09;18.50;99.90
21759;DHT22;11041;50.854;20.580;2023-07-30T00:05:36;18.40;99.90
21759;DHT22;11041;50.854;20.580;2023-07-30T00:08:02;18.40;99.90
21759;DHT22;11041;50.854;20.580;2023-07-30T00:10:28;18.40;99.90
21759;DHT22;11041;50.854;20.580;2023-07-30T00:12:55;18.40;99.90
21759;DHT22;11041;50.854;20.580;2023-07-30T00:15:21;18.40;99.90
21759;DHT22;11041;50.854;20.580;2023-07-30T00:17:48;18.40;99.90
21759;DHT22;11041;50.854;20.580;2023-07-30T00:20:14;18.30;99.90
21759;DHT22;11041;50.854;20.580;2023-07-30T00:22:40;18.30;99.90
21759;DHT22;11041;50.854;20.580;2023-07-30T00:25:07;18.30;99.90
21759;DHT22;11041;50.854;20.580;2023-07-30T00:27:34;18.30;99.90
21759;DHT22;11041;50.854;20.580;2023-07-30T00:30:00;18.30;99.90
21759;DHT22;11041;50.854;20.580;2023-07-30T00:32:27;18.30;99.90
21759;DHT22;11041;50.854;20.580;2023-07-30T00:34:53;18.20;99.90
21759;DHT22;11041;50.854;20.580;2023-07-30T00:37:19;18.20;99.90
21759;DHT22;11041;50.854;20.580;2023-07-30T00:39:45;18.10;99.90
21759;DHT22;11041;50.854;20.580;2023-07-30T00:42:12;18.10;99.90
21759;DHT22;11041;50.854;20.580;2023-07-30T00:44:38;18.10;99.90
21759;DHT22;11041;50.854;20.580;2023-07-30T00:47:05;18.00;99.90
21759;DHT22;11041;50.854;20.580;2023-07-30T00:49:32;18.00;99.90
21759;DHT22;11041;50.854;20.580;2023-07-30T00:51:59;18.00;99.90
21759;DHT22;11041;50.854;20.580;2023-07-30T00:54:26;18.00;99.90
21759;DHT22;11041;50.854;20.580;2023-07-30T00:56:53;18.00;99.90
21759;DHT22;11041;50.854;20.580;2023-07-30T00:59:20;18.00;99.90
21759;DHT22;11041;50.854;20.580;2023-07-30T01:01:47;17.90;99.90
21759;DHT22;11041;50.854;20.580;2023-07-30T01:04:15;17.90;99.90
21759;DHT22;11041;50.854;20.580;2023-07-30T01:06:42;17.90;99.90
21759;DHT22;11041;50.854;20.580;2023-07-30T01:09:10;17.90;99.90
21759;DHT22;11041;50.854;20.580;2023-07-30T01:11:37;17.90;99.90
21759;DHT22;11041;50.854;20.580;2023-07-30T01:14:05;17.80;99.90
21759;DHT22;11041;50.854;20.580;2023-07-30T01:16:34;17.80;99.90
21759;DHT22;11041;50.854;20.580;2023-07-30T01:19:00;17.80;99.90
21759;DHT22;11041;50.854;20.580;2023-07-30T01:21:35;17.80;99.90
21759;DHT22;11041;50.854;20.580;2023-07-30T01:24:03;17.70;99.90
21759;DHT22;11041;50.854;20.580;2023-07-30T01:26:44;17.70;99.90
21759;DHT22;11041;50.854;20.580;2023-07-30T01:29:25;17.70;99.90
21759;DHT22;11041;50.854;20.580;2023-07-30T01:31:56;17.70;99.90
21759;DHT22;11041;50.854;20.580;2023-07-30T01:34:28;17.70;99.90
21759;DHT22;11041;50.854;20.580;2023-07-30T01:37:00;17.70;99.90
21759;DHT22;11041;50.854;20.580;2023-07-30T01:39:27;17.70;99.90
21759;DHT22;11041;50.854;20.580;2023-07-30T01:41:55;17.60;99.90
21759;DHT22;11041;50.854;20.580;2023-07-30T01:44:21;17.70;99.90
21759;DHT22;11041;50.854;20.580;2023-07-30T01:46:47;17.80;99.90
21759;DHT22;11041;50.854;20.580;2023-07-30T01:49:14;17.80;99.90
21759;DHT22;11041;50.854;20.580;2023-07-30T01:51:40;17.80;99.90
21759;DHT22;11041;50.854;20.580;2023-07-30T01:54:06;17.90;99.90
21759;DHT22;11041;50.854;20.580;2023-07-30T01:56:33;17.90;99.90
21759;DHT22;11041;50.854;20.580;2023-07-30T01:58:59;17.90;99.90
21759;DHT22;11041;50.854;20.580;2023-07-30T02:01:25;18.00;99.90
21759;DHT22;11041;50.854;20.580;2023-07-30T02:03:51;18.00;99.90
21759;DHT22;11041;50.854;20.580;2023-07-30T02:06:18;18.00;99.90
21759;DHT22;11041;50.854;20.580;2023-07-30T02:08:44;18.10;99.90
21759;DHT22;11041;50.854;20.580;2023-07-30T02:11:10;18.10;99.90
21759;DHT22;11041;50.854;20.580;2023-07-30T02:13:36;18.10;99.90
21759;DHT22;11041;50.854;20.580;2023-07-30T02:16:03;18.10;99.90
21759;DHT22;11041;50.854;20.580;2023-07-30T02:18:29;18.10;99.90
21759;DHT22;11041;50.854;20.580;2023-07-30T02:20:56;18.10;99.90
21759;DHT22;11041;50.854;20.580;2023-07-30T02:23:22;18.10;99.90
21759;DHT22;11041;50.854;20.580;2023-07-30T02:25:50;18.10;99.90
21759;DHT22;11041;50.854;20.580;2023-07-30T02:28:16;18.10;99.90
21759;DHT22;11041;50.854;20.580;2023-07-30T02:30:42;18.10;99.90
21759;DHT22;11041;50.854;20.580;2023-07-30T02:33:08;18.10;99.90
21759;DHT22;11041;50.854;20.580;2023-07-30T02:35:35;18.10;99.90
21759;DHT22;11041;50.854;20.580;2023-07-30T02:38:01;18.10;99.90
21759;DHT22;11041;50.854;20.580;2023-07-30T02:40:28;18.10;99.90
21759;DHT22;11041;50.854;20.580;2023-07-30T02:42:54;18.00;99.90
21759;DHT22;11041;50.854;20.580;2023-07-30T02:45:21;18.00;99.90
21759;DHT22;11041;50.854;20.580;2023-07-30T02:47:47;18.00;99.90
21759;DHT22;11041;50.854;20.580;2023-07-30T02:50:14;18.00;99.90
21759;DHT22;11041;50.854;20.580;2023-07-30T02:52:40;18.00;99.90
21759;DHT22;11041;50.854;20.580;2023-07-30T02:55:07;18.00;99.90
21759;DHT22;11041;50.854;20.580;2023-07-30T02:57:33;18.00;99.90
21759;DHT22;11041;50.854;20.580;2023-07-30T02:59:59;18.00;99.90
21759;DHT22;11041;50.854;20.580;2023-07-30T03:02:26;18.00;99.90
21759;DHT22;11041;50.854;20.580;2023-07-30T03:04:52;18.00;99.90
21759;DHT22;11041;50.854;20.580;2023-07-30T03:07:18;17.90;99.90
21759;DHT22;11041;50.854;20.580;2023-07-30T03:09:46;17.90;99.90
21759;DHT22;11041;50.854;20.580;2023-07-30T03:12:12;17.90;99.90
21759;DHT22;11041;50.854;20.580;2023-07-30T03:14:39;17.80;99.90
21759;DHT22;11041;50.854;20.580;2023-07-30T03:17:05;17.80;99.90
21759;DHT22;11041;50.854;20.580;2023-07-30T03:19:32;17.70;99.90
21759;DHT22;11041;50.854;20.580;2023-07-30T03:21:58;17.70;99.90
21759;DHT22;11041;50.854;20.580;2023-07-30T03:24:24;17.70;99.90
21759;DHT22;11041;50.854;20.580;2023-07-30T03:26:51;17.70;99.90
21759;DHT22;11041;50.854;20.580;2023-07-30T03:29:17;17.60;99.90
21759;DHT22;11041;50.854;20.580;2023-07-30T03:31:43;17.60;99.90
21759;DHT22;11041;50.854;20.580;2023-07-30T03:34:09;17.60;99.90
21759;DHT22;11041;50.854;20.580;2023-07-30T03:36:36;17.60;99.90
21759;DHT22;11041;50.854;20.580;2023-07-30T03:39:02;17.50;99.90
21759;DHT22;11041;50.854;20.580;2023-07-30T03:41:28;17.50;99.90
21759;DHT22;11041;50.854;20.580;2023-07-30T03:43:55;17.50;99.90
21759;DHT22;11041;50.854;20.580;2023-07-30T03:46:21;17.50;99.90
21759;DHT22;11041;50.854;20.580;2023-07-30T03:48:47;17.50;99.90
21759;DHT22;11041;50.854;20.580;2023-07-30T03:51:13;17.50;99.90
21759;DHT22;11041;50.854;20.580;2023-07-30T03:53:40;17.50;99.90
21759;DHT22;11041;50.854;20.580;2023-07-30T03:56:08;17.60;99.90
21759;DHT22;11041;50.854;20.580;2023-07-30T03:58:34;17.60;99.90
21759;DHT22;11041;50.854;20.580;2023-07-30T04:01:02;17.70;99.90
21759;DHT22;11041;50.854;20.580;2023-07-30T04:03:28;17.70;99.90
21759;DHT22;11041;50.854;20.580;2023-07-30T04:05:54;17.80;99.90
21759;DHT22;11041;50.854;20.580;2023-07-30T04:08:21;17.70;99.90
21759;DHT22;11041;50.854;20.580;2023-07-30T04:10:47;17.80;99.90
21759;DHT22;11041;50.854;20.580;2023-07-30T04:13:13;17.90;99.90
21759;DHT22;11041;50.854;20.580;2023-07-30T04:15:39;17.90;99.90
21759;DHT22;11041;50.854;20.580;2023-07-30T04:18:06;18.00;99.90
21759;DHT22;11041;50.854;20.580;2023-07-30T04:20:32;18.00;99.90
21759;DHT22;11041;50.854;20.580;2023-07-30T04:22:58;18.10;99.90
21759;DHT22;11041;50.854;20.580;2023-07-30T04:25:25;18.10;99.90
21759;DHT22;11041;50.854;20.580;2023-07-30T04:27:51;18.00;99.90
21759;DHT22;11041;50.854;20.580;2023-07-30T04:30:17;18.00;99.90
21759;DHT22;11041;50.854;20.580;2023-07-30T04:32:44;18.00;99.90
21759;DHT22;11041;50.854;20.580;2023-07-30T04:35:10;18.00;99.90
21759;DHT22;11041;50.854;20.580;2023-07-30T04:37:37;18.00;99.90
21759;DHT22;11041;50.854;20.580;2023-07-30T04:40:04;18.10;99.90
21759;DHT22;11041;50.854;20.580;2023-07-30T04:42:31;18.10;99.90
21759;DHT22;11041;50.854;20.580;2023-07-30T04:44:57;18.00;99.90
21759;DHT22;11041;50.854;20.580;2023-07-30T04:47:23;18.10;99.90
21759;DHT22;11041;50.854;20.580;2023-07-30T04:49:49;18.10;99.90
21759;DHT22;11041;50.854;20.580;2023-07-30T04:52:16;18.10;99.90
21759;DHT22;11041;50.854;20.580;2023-07-30T04:54:42;18.10;99.90
21759;DHT22;11041;50.854;20.580;2023-07-30T04:57:09;18.20;99.90
21759;DHT22;11041;50.854;20.580;2023-07-30T04:59:35;18.20;99.90
21759;DHT22;11041;50.854;20.580;2023-07-30T05:02:01;17.90;99.90
21759;DHT22;11041;50.854;20.580;2023-07-30T05:04:28;18.10;99.90
21759;DHT22;11041;50.854;20.580;2023-07-30T05:06:54;18.10;99.90
21759;DHT22;11041;50.854;20.580;2023-07-30T05:09:21;18.20;99.90
21759;DHT22;11041;50.854;20.580;2023-07-30T05:11:47;18.10;99.90
21759;DHT22;11041;50.854;20.580;2023-07-30T05:14:14;18.10;99.90
21759;DHT22;11041;50.854;20.580;2023-07-30T05:16:40;18.20;99.90
21759;DHT22;11041;50.854;20.580;2023-07-30T05:19:06;18.20;99.90
21759;DHT22;11041;50.854;20.580;2023-07-30T05:21:33;18.30;99.90
21759;DHT22;11041;50.854;20.580;2023-07-30T05:24:00;18.40;99.90
21759;DHT22;11041;50.854;20.580;2023-07-30T05:26:26;18.30;99.90
21759;DHT22;11041;50.854;20.580;2023-07-30T05:28:52;18.50;99.90
21759;DHT22;11041;50.854;20.580;2023-07-30T05:31:19;18.50;99.90
21759;DHT22;11041;50.854;20.580;2023-07-30T05:33:45;18.60;99.90
21759;DHT22;11041;50.854;20.580;2023-07-30T05:36:12;18.50;99.90
21759;DHT22;11041;50.854;20.580;2023-07-30T05:38:38;18.50;99.90
21759;DHT22;11041;50.854;20.580;2023-07-30T05:41:04;18.40;99.90
21759;DHT22;11041;50.854;20.580;2023-07-30T05:43:31;18.40;99.90
21759;DHT22;11041;50.854;20.580;2023-07-30T05:45:57;18.40;99.90
21759;DHT22;11041;50.854;20.580;2023-07-30T05:48:23;18.40;99.90
21759;DHT22;11041;50.854;20.580;2023-07-30T05:50:50;18.50;99.90
21759;DHT22;11041;50.854;20.580;2023-07-30T05:53:16;18.60;99.90
21759;DHT22;11041;50.854;20.580;2023-07-30T05:55:43;18.80;99.90
21759;DHT22;11041;50.854;20.580;2023-07-30T05:58:09;18.80;99.90
21759;DHT22;11041;50.854;20.580;2023-07-30T06:00:36;18.80;99.90
21759;DHT22;11041;50.854;20.580;2023-07-30T06:03:02;18.90;99.90
21759;DHT22;11041;50.854;20.580;2023-07-30T06:05:29;19.00;99.90
21759;DHT22;11041;50.854;20.580;2023-07-30T06:07:55;19.10;99.90
21759;DHT22;11041;50.854;20.580;2023-07-30T06:10:22;19.30;99.90
21759;DHT22;11041;50.854;20.580;2023-07-30T06:12:49;19.40;99.90
21759;DHT22;11041;50.854;20.580;2023-07-30T06:15:15;19.40;99.90
21759;DHT22;11041;50.854;20.580;2023-07-30T06:17:41;19.40;99.90
21759;DHT22;11041;50.854;20.580;2023-07-30T06:20:08;19.30;99.90
21759;DHT22;11041;50.854;20.580;2023-07-30T06:22:35;19.30;99.90
21759;DHT22;11041;50.854;20.580;2023-07-30T06:25:01;19.40;99.90
21759;DHT22;11041;50.854;20.580;2023-07-30T06:27:28;19.60;99.90
21759;DHT22;11041;50.854;20.580;2023-07-30T06:29:55;19.60;99.90
21759;DHT22;11041;50.854;20.580;2023-07-30T06:32:21;19.50;99.90
21759;DHT22;11041;50.854;20.580;2023-07-30T06:34:47;19.70;99.90
21759;DHT22;11041;50.854;20.580;2023-07-30T06:37:14;19.70;99.90
21759;DHT22;11041;50.854;20.580;2023-07-30T06:39:40;19.80;99.90
21759;DHT22;11041;50.854;20.580;2023-07-30T06:42:06;19.80;99.90
21759;DHT22;11041;50.854;20.580;2023-07-30T06:44:34;19.70;99.90
21759;DHT22;11041;50.854;20.580;2023-07-30T06:47:00;19.70;99.90
21759;DHT22;11041;50.854;20.580;2023-07-30T06:49:27;19.80;99.90
21759;DHT22;11041;50.854;20.580;2023-07-30T06:51:54;19.60;99.90
21759;DHT22;11041;50.854;20.580;2023-07-30T06:54:20;19.70;99.90
21759;DHT22;11041;50.854;20.580;2023-07-30T06:56:47;19.80;99.90
21759;DHT22;11041;50.854;20.580;2023-07-30T06:59:13;20.00;99.90
21759;DHT22;11041;50.854;20.580;2023-07-30T07:01:39;19.90;99.90
21759;DHT22;11041;50.854;20.580;2023-07-30T07:04:06;20.10;99.90
21759;DHT22;11041;50.854;20.580;2023-07-30T07:06:32;20.20;99.90
21759;DHT22;11041;50.854;20.580;2023-07-30T07:08:58;20.30;99.90
21759;DHT22;11041;50.854;20.580;2023-07-30T07:11:24;20.20;99.90
21759;DHT22;11041;50.854;20.580;2023-07-30T07:13:51;20.40;99.90
21759;DHT22;11041;50.854;20.580;2023-07-30T07:16:17;20.60;99.90
21759;DHT22;11041;50.854;20.580;2023-07-30T07:18:43;20.60;99.90
21759;DHT22;11041;50.854;20.580;2023-07-30T07:21:10;20.80;99.90
21759;DHT22;11041;50.854;20.580;2023-07-30T07:23:37;20.70;99.90
21759;DHT22;11041;50.854;20.580;2023-07-30T07:26:03;20.80;99.90
21759;DHT22;11041;50.854;20.580;2023-07-30T07:28:30;20.80;99.90
21759;DHT22;11041;50.854;20.580;2023-07-30T07:30:56;21.00;99.90
21759;DHT22;11041;50.854;20.580;2023-07-30T07:33:22;20.90;99.90
21759;DHT22;11041;50.854;20.580;2023-07-30T07:36:07;20.80;99.90
21759;DHT22;11041;50.854;20.580;2023-07-30T07:38:36;21.10;99.90
21759;DHT22;11041;50.854;20.580;2023-07-30T07:41:03;21.10;99.90
21759;DHT22;11041;50.854;20.580;2023-07-30T07:43:29;21.00;99.90
21759;DHT22;11041;50.854;20.580;2023-07-30T07:45:55;21.10;99.90
21759;DHT22;11041;50.854;20.580;2023-07-30T07:48:22;21.10;99.90
21759;DHT22;11041;50.854;20.580;2023-07-30T07:50:48;21.10;99.90
21759;DHT22;11041;50.854;20.580;2023-07-30T07:53:14;21.20;99.90
21759;DHT22;11041;50.854;20.580;2023-07-30T07:55:41;21.30;99.90
21759;DHT22;11041;50.854;20.580;2023-07-30T07:58:07;21.40;99.90
21759;DHT22;11041;50.854;20.580;2023-07-30T08:00:33;21.50;99.90
21759;DHT22;11041;50.854;20.580;2023-07-30T08:02:59;21.20;99.90
21759;DHT22;11041;50.854;20.580;2023-07-30T08:05:26;21.00;99.90
21759;DHT22;11041;50.854;20.580;2023-07-30T08:07:53;21.10;99.90
21759;DHT22;11041;50.854;20.580;2023-07-30T08:10:19;21.40;99.90
21759;DHT22;11041;50.854;20.580;2023-07-30T08:12:45;21.40;99.90
21759;DHT22;11041;50.854;20.580;2023-07-30T08:15:14;21.40;99.90
21759;DHT22;11041;50.854;20.580;2023-07-30T08:17:41;21.20;99.90
21759;DHT22;11041;50.854;20.580;2023-07-30T08:20:07;21.40;99.90
21759;DHT22;11041;50.854;20.580;2023-07-30T08:22:34;21.50;99.90
21759;DHT22;11041;50.854;20.580;2023-07-30T08:25:00;21.30;99.90
21759;DHT22;11041;50.854;20.580;2023-07-30T08:27:26;21.40;99.90
21759;DHT22;11041;50.854;20.580;2023-07-30T08:29:52;21.40;99.90
21759;DHT22;11041;50.854;20.580;2023-07-30T08:32:18;21.50;99.90
21759;DHT22;11041;50.854;20.580;2023-07-30T08:34:44;21.70;99.90
21759;DHT22;11041;50.854;20.580;2023-07-30T08:37:11;21.80;99.90
21759;DHT22;11041;50.854;20.580;2023-07-30T08:39:37;21.80;99.90
21759;DHT22;11041;50.854;20.580;2023-07-30T08:42:03;22.00;99.90
21759;DHT22;11041;50.854;20.580;2023-07-30T08:44:29;22.10;99.90
21759;DHT22;11041;50.854;20.580;2023-07-30T08:46:56;22.10;99.90
21759;DHT22;11041;50.854;20.580;2023-07-30T08:49:22;22.10;99.90
21759;DHT22;11041;50.854;20.580;2023-07-30T08:51:52;22.20;99.90
21759;DHT22;11041;50.854;20.580;2023-07-30T08:54:20;22.40;99.90
21759;DHT22;11041;50.854;20.580;2023-07-30T08:56:48;22.50;99.90
21759;DHT22;11041;50.854;20.580;2023-07-30T08:59:15;22.50;99.90
21759;DHT22;11041;50.854;20.580;2023-07-30T09:01:44;22.50;99.90
21759;DHT22;11041;50.854;20.580;2023-07-30T09:04:14;22.30;99.90
21759;DHT22;11041;50.854;20.580;2023-07-30T09:06:43;22.30;99.90
21759;DHT22;11041;50.854;20.580;2023-07-30T09:09:13;22.50;99.90
21759;DHT22;11041;50.854;20.580;2023-07-30T09:11:39;22.60;99.90
21759;DHT22;11041;50.854;20.580;2023-07-30T09:14:06;22.80;99.90
21759;DHT22;11041;50.854;20.580;2023-07-30T09:16:33;22.80;99.90
21759;DHT22;11041;50.854;20.580;2023-07-30T09:19:00;23.00;99.90
21759;DHT22;11041;50.854;20.580;2023-07-30T09:21:31;22.90;99.90
21759;DHT22;11041;50.854;20.580;2023-07-30T09:23:59;22.80;99.90
21759;DHT22;11041;50.854;20.580;2023-07-30T09:26:41;22.80;99.90
21759;DHT22;11041;50.854;20.580;2023-07-30T09:29:09;22.90;99.90
21759;DHT22;11041;50.854;20.580;2023-07-30T09:31:47;22.90;99.90
21759;DHT22;11041;50.854;20.580;2023-07-30T09:34:21;23.00;99.90
21759;DHT22;11041;50.854;20.580;2023-07-30T09:36:53;23.20;99.90
21759;DHT22;11041;50.854;20.580;2023-07-30T09:39:25;23.40;99.90
21759;DHT22;11041;50.854;20.580;2023-07-30T09:41:59;23.30;99.90
21759;DHT22;11041;50.854;20.580;2023-07-30T09:44:27;23.20;99.90
21759;DHT22;11041;50.854;20.580;2023-07-30T09:46:54;23.50;99.90
21759;DHT22;11041;50.854;20.580;2023-07-30T09:49:20;23.40;99.90
21759;DHT22;11041;50.854;20.580;2023-07-30T09:51:57;23.30;99.90
21759;DHT22;11041;50.854;20.580;2023-07-30T09:54:33;23.40;99.90
21759;DHT22;11041;50.854;20.580;2023-07-30T09:57:00;23.60;99.90
21759;DHT22;11041;50.854;20.580;2023-07-30T09:59:27;23.80;99.90
21759;DHT22;11041;50.854;20.580;2023-07-30T10:01:55;23.60;99.90
21759;DHT22;11041;50.854;20.580;2023-07-30T10:04:22;23.60;99.90
21759;DHT22;11041;50.854;20.580;2023-07-30T10:06:59;23.70;99.90
21759;DHT22;11041;50.854;20.580;2023-07-30T10:09:32;23.60;99.90
21759;DHT22;11041;50.854;20.580;2023-07-30T10:12:05;23.70;99.90
21759;DHT22;11041;50.854;20.580;2023-07-30T10:14:32;24.00;99.90
21759;DHT22;11041;50.854;20.580;2023-07-30T10:17:00;24.10;99.90
21759;DHT22;11041;50.854;20.580;2023-07-30T10:19:28;24.00;99.90
21759;DHT22;11041;50.854;20.580;2023-07-30T10:24:58;23.70;99.90
21759;DHT22;11041;50.854;20.580;2023-07-30T10:27:35;24.00;99.90
21759;DHT22;11041;50.854;20.580;2023-07-30T10:30:14;24.10;99.90
21759;DHT22;11041;50.854;20.580;2023-07-30T10:33:02;24.40;99.90
21759;DHT22;11041;50.854;20.580;2023-07-30T10:35:43;24.50;99.90
21759;DHT22;11041;50.854;20.580;2023-07-30T10:38:18;24.50;99.90
21759;DHT22;11041;50.854;20.580;2023-07-30T10:41:01;24.80;99.90
21759;DHT22;11041;50.854;20.580;2023-07-30T10:43:50;24.70;99.90
21759;DHT22;11041;50.854;20.580;2023-07-30T10:46:18;24.80;99.90
21759;DHT22;11041;50.854;20.580;2023-07-30T10:48:47;24.90;99.90
21759;DHT22;11041;50.854;20.580;2023-07-30T10:51:16;24.90;99.90
21759;DHT22;11041;50.854;20.580;2023-07-30T10:53:48;25.00;99.90
21759;DHT22;11041;50.854;20.580;2023-07-30T10:56:18;24.60;99.90
21759;DHT22;11041;50.854;20.580;2023-07-30T10:58:51;24.50;99.90
21759;DHT22;11041;50.854;20.580;2023-07-30T11:01:18;24.40;99.90
21759;DHT22;11041;50.854;20.580;2023-07-30T11:03:49;23.90;99.90
21759;DHT22;11041;50.854;20.580;2023-07-30T11:06:23;24.10;99.90
21759;DHT22;11041;50.854;20.580;2023-07-30T11:08:50;23.90;99.90
21759;DHT22;11041;50.854;20.580;2023-07-30T11:11:16;23.70;99.90
21759;DHT22;11041;50.854;20.580;2023-07-30T11:13:45;23.70;99.90
21759;DHT22;11041;50.854;20.580;2023-07-30T11:16:13;23.50;99.90
21759;DHT22;11041;50.854;20.580;2023-07-30T11:18:42;23.40;99.90
21759;DHT22;11041;50.854;20.580;2023-07-30T11:21:14;23.30;99.90
21759;DHT22;11041;50.854;20.580;2023-07-30T11:23:43;23.10;99.90
21759;DHT22;11041;50.854;20.580;2023-07-30T11:26:16;23.00;99.90
21759;DHT22;11041;50.854;20.580;2023-07-30T11:28:45;22.90;99.90
21759;DHT22;11041;50.854;20.580;2023-07-30T11:31:15;23.00;99.90
21759;DHT22;11041;50.854;20.580;2023-07-30T11:33:46;23.00;99.90
21759;DHT22;11041;50.854;20.580;2023-07-30T11:36:16;23.10;99.90
21759;DHT22;11041;50.854;20.580;2023-07-30T11:38:46;23.10;99.90
21759;DHT22;11041;50.854;20.580;2023-07-30T11:41:13;23.10;99.90
21759;DHT22;11041;50.854;20.580;2023-07-30T11:43:44;23.30;99.90
21759;DHT22;11041;50.854;20.580;2023-07-30T11:46:15;23.40;99.90
21759;DHT22;11041;50.854;20.580;2023-07-30T11:48:45;23.50;99.90
21759;DHT22;11041;50.854;20.580;2023-07-30T11:51:24;23.50;99.90
21759;DHT22;11041;50.854;20.580;2023-07-30T11:56:25;23.70;99.90
21759;DHT22;11041;50.854;20.580;2023-07-30T11:58:57;23.70;99.90
21759;DHT22;11041;50.854;20.580;2023-07-30T12:01:26;23.50;99.90
21759;DHT22;11041;50.854;20.580;2023-07-30T12:03:56;23.50;99.90
21759;DHT22;11041;50.854;20.580;2023-07-30T12:06:23;23.60;99.90
21759;DHT22;11041;50.854;20.580;2023-07-30T12:08:51;23.50;99.90
21759;DHT22;11041;50.854;20.580;2023-07-30T12:11:18;23.60;99.90
21759;DHT22;11041;50.854;20.580;2023-07-30T12:13:47;23.70;99.90
21759;DHT22;11041;50.854;20.580;2023-07-30T12:16:16;23.60;99.90
21759;DHT22;11041;50.854;20.580;2023-07-30T12:18:42;23.60;99.90
21759;DHT22;11041;50.854;20.580;2023-07-30T12:21:08;23.70;99.90
21759;DHT22;11041;50.854;20.580;2023-07-30T12:23:37;23.60;99.90
21759;DHT22;11041;50.854;20.580;2023-07-30T12:26:04;23.70;99.90
21759;DHT22;11041;50.854;20.580;2023-07-30T12:28:32;23.60;99.90
21759;DHT22;11041;50.854;20.580;2023-07-30T12:31:00;23.60;99.90
21759;DHT22;11041;50.854;20.580;2023-07-30T12:33:27;23.50;99.90
21759;DHT22;11041;50.854;20.580;2023-07-30T12:35:53;23.30;99.90
21759;DHT22;11041;50.854;20.580;2023-07-30T12:38:20;23.30;99.90
21759;DHT22;11041;50.854;20.580;2023-07-30T12:40:46;23.20;99.90
21759;DHT22;11041;50.854;20.580;2023-07-30T12:43:13;23.30;99.90
21759;DHT22;11041;50.854;20.580;2023-07-30T12:45:39;23.30;99.90
21759;DHT22;11041;50.854;20.580;2023-07-30T12:48:05;23.30;99.90
21759;DHT22;11041;50.854;20.580;2023-07-30T12:50:33;23.30;99.90
21759;DHT22;11041;50.854;20.580;2023-07-30T12:53:00;23.40;99.90
21759;DHT22;11041;50.854;20.580;2023-07-30T12:55:26;23.50;99.90
21759;DHT22;11041;50.854;20.580;2023-07-30T12:57:52;23.50;99.90
21759;DHT22;11041;50.854;20.580;2023-07-30T13:00:18;23.50;99.90
21759;DHT22;11041;50.854;20.580;2023-07-30T13:02:45;23.50;99.90
21759;DHT22;11041;50.854;20.580;2023-07-30T13:05:11;23.70;99.90
21759;DHT22;11041;50.854;20.580;2023-07-30T13:07:39;23.60;99.90
21759;DHT22;11041;50.854;20.580;2023-07-30T13:10:07;23.50;99.90
21759;DHT22;11041;50.854;20.580;2023-07-30T13:12:35;23.70;99.90
21759;DHT22;11041;50.854;20.580;2023-07-30T13:15:02;23.80;99.90
21759;DHT22;11041;50.854;20.580;2023-07-30T13:17:29;23.90;99.90
21759;DHT22;11041;50.854;20.580;2023-07-30T13:19:56;24.00;99.90
21759;DHT22;11041;50.854;20.580;2023-07-30T13:22:22;24.20;99.90
21759;DHT22;11041;50.854;20.580;2023-07-30T13:24:49;23.90;99.90
21759;DHT22;11041;50.854;20.580;2023-07-30T13:27:16;23.80;99.90
21759;DHT22;11041;50.854;20.580;2023-07-30T13:29:42;24.00;99.90
21759;DHT22;11041;50.854;20.580;2023-07-30T13:32:09;23.80;99.90
21759;DHT22;11041;50.854;20.580;2023-07-30T13:34:35;23.80;99.90
21759;DHT22;11041;50.854;20.580;2023-07-30T13:37:02;23.90;99.90
21759;DHT22;11041;50.854;20.580;2023-07-30T13:39:28;24.20;99.90
21759;DHT22;11041;50.854;20.580;2023-07-30T13:41:54;24.30;99.90
21759;DHT22;11041;50.854;20.580;2023-07-30T13:44:21;24.40;99.90
21759;DHT22;11041;50.854;20.580;2023-07-30T13:46:47;24.50;99.90
21759;DHT22;11041;50.854;20.580;2023-07-30T13:49:13;24.60;99.90
21759;DHT22;11041;50.854;20.580;2023-07-30T13:51:40;24.70;99.90
21759;DHT22;11041;50.854;20.580;2023-07-30T13:54:06;24.40;99.90
21759;DHT22;11041;50.854;20.580;2023-07-30T13:56:34;24.40;99.90
21759;DHT22;11041;50.854;20.580;2023-07-30T13:59:00;24.30;99.90
21759;DHT22;11041;50.854;20.580;2023-07-30T14:01:27;24.50;99.90
21759;DHT22;11041;50.854;20.580;2023-07-30T14:03:54;24.60;99.90
21759;DHT22;11041;50.854;20.580;2023-07-30T14:06:20;24.70;99.90
21759;DHT22;11041;50.854;20.580;2023-07-30T14:08:47;24.70;99.90
21759;DHT22;11041;50.854;20.580;2023-07-30T14:11:13;24.70;99.90
21759;DHT22;11041;50.854;20.580;2023-07-30T14:13:40;24.70;99.90
21759;DHT22;11041;50.854;20.580;2023-07-30T14:16:06;24.70;99.90
21759;DHT22;11041;50.854;20.580;2023-07-30T14:18:33;24.50;99.90
21759;DHT22;11041;50.854;20.580;2023-07-30T14:20:59;24.30;99.90
21759;DHT22;11041;50.854;20.580;2023-07-30T14:23:25;24.30;99.90
21759;DHT22;11041;50.854;20.580;2023-07-30T14:25:52;24.40;99.90
21759;DHT22;11041;50.854;20.580;2023-07-30T14:28:18;24.10;99.90
21759;DHT22;11041;50.854;20.580;2023-07-30T14:30:45;24.10;99.90
21759;DHT22;11041;50.854;20.580;2023-07-30T14:33:11;24.20;99.90
21759;DHT22;11041;50.854;20.580;2023-07-30T14:35:37;24.30;99.90
21759;DHT22;11041;50.854;20.580;2023-07-30T14:38:04;24.40;99.90
21759;DHT22;11041;50.854;20.580;2023-07-30T14:40:31;24.30;99.90
21759;DHT22;11041;50.854;20.580;2023-07-30T14:42:58;24.40;99.90
21759;DHT22;11041;50.854;20.580;2023-07-30T14:45:24;24.50;99.90
21759;DHT22;11041;50.854;20.580;2023-07-30T14:47:51;24.50;99.90
21759;DHT22;11041;50.854;20.580;2023-07-30T14:50:17;24.40;99.90
21759;DHT22;11041;50.854;20.580;2023-07-30T14:52:43;24.50;99.90
21759;DHT22;11041;50.854;20.580;2023-07-30T14:55:09;24.20;99.90
21759;DHT22;11041;50.854;20.580;2023-07-30T14:57:35;24.30;99.90
21759;DHT22;11041;50.854;20.580;2023-07-30T15:00:02;24.30;99.90
21759;DHT22;11041;50.854;20.580;2023-07-30T15:02:29;24.40;99.90
21759;DHT22;11041;50.854;20.580;2023-07-30T15:04:55;24.40;99.90
21759;DHT22;11041;50.854;20.580;2023-07-30T15:07:21;24.30;99.90
21759;DHT22;11041;50.854;20.580;2023-07-30T15:09:52;24.40;99.90
21759;DHT22;11041;50.854;20.580;2023-07-30T15:12:18;24.40;99.90
21759;DHT22;11041;50.854;20.580;2023-07-30T15:14:45;24.50;99.90
21759;DHT22;11041;50.854;20.580;2023-07-30T15:17:11;24.50;99.90
21759;DHT22;11041;50.854;20.580;2023-07-30T15:19:38;24.50;99.90
21759;DHT22;11041;50.854;20.580;2023-07-30T15:22:05;24.60;99.90